createdAt,value
2022-12-25T00:02:58.083Z,160264.97
2022-12-25T00:06:02.538Z,160259.78
2022-12-25T00:09:06.893Z,160257.13
2022-12-25T00:12:10.898Z,160253.22
2022-12-25T00:15:14.895Z,160270.16
2022-12-25T00:18:19.211Z,160262.38
2022-12-25T00:21:23.303Z,160261.09
2022-12-25T00:24:27.044Z,160248.00
2022-12-25T00:27:34.704Z,160264.97
2022-12-25T00:30:40.891Z,160280.66
2022-12-25T00:33:46.524Z,160264.97
2022-12-25T00:36:51.760Z,160249.28
2022-12-25T00:39:55.552Z,160250.59
2022-12-25T00:42:59.381Z,160257.13
2022-12-25T00:46:05.449Z,160246.69
2022-12-25T00:49:09.709Z,160246.69
2022-12-25T00:52:13.684Z,160231.00
2022-12-25T00:55:17.810Z,160215.38
2022-12-25T00:58:22.450Z,160212.75
2022-12-25T01:01:26.682Z,160223.22
2022-12-25T01:04:30.713Z,160215.38
2022-12-25T01:07:34.616Z,160208.81
2022-12-25T01:10:38.658Z,160218.00
2022-12-25T01:13:42.437Z,160212.75
2022-12-25T01:16:46.284Z,160186.69
2022-12-25T01:19:50.374Z,160172.28
2022-12-25T01:22:54.562Z,160163.13
2022-12-25T01:26:04.396Z,160157.88
2022-12-25T01:29:08.159Z,160177.53
2022-12-25T01:32:12.262Z,160164.44
2022-12-25T01:35:16.289Z,160161.84
2022-12-25T01:38:20.795Z,160134.41
2022-12-25T01:41:25.441Z,160108.31
2022-12-25T01:44:35.611Z,160078.34
2022-12-25T01:47:39.489Z,160067.88
2022-12-25T01:50:47.566Z,160066.59
2022-12-25T01:53:51.776Z,160037.84
2022-12-25T01:56:59.924Z,160030.03
2022-12-25T02:00:10.697Z,160027.44
2022-12-25T02:03:14.806Z,160035.25
2022-12-25T02:06:18.856Z,160043.03
2022-12-25T02:09:22.834Z,160049.59
2022-12-25T02:12:30.201Z,160054.78
2022-12-25T02:15:55.516Z,160061.34
2022-12-25T02:19:07.338Z,160058.72
2022-12-25T02:22:47.829Z,160054.78
2022-12-25T02:26:14.479Z,160056.13
2022-12-25T02:29:25.594Z,160049.59
2022-12-25T02:32:36.416Z,160067.88
2022-12-25T02:35:42.360Z,160088.72
2022-12-25T02:39:10.337Z,160093.97
2022-12-25T02:42:23.786Z,160093.97
2022-12-25T02:46:01.966Z,160097.88
2022-12-25T02:49:28.915Z,160086.13
2022-12-25T02:52:51.581Z,160087.41
2022-12-25T02:56:15.430Z,160116.19
2022-12-25T02:59:39.049Z,160133.09
2022-12-25T03:03:05.863Z,160154.00
2022-12-25T03:06:29.333Z,160178.78
2022-12-25T03:10:04.134Z,160195.75
2022-12-25T03:13:14.895Z,160198.38
2022-12-25T03:16:39.048Z,160165.78
2022-12-25T03:20:01.817Z,160140.97
2022-12-25T03:23:25.935Z,160138.34
2022-12-25T03:26:48.649Z,160144.91
2022-12-25T03:30:12.947Z,160165.78
2022-12-25T03:33:45.153Z,160185.38
2022-12-25T03:37:23.334Z,160198.38
2022-12-25T03:40:45.660Z,160197.06
2022-12-25T03:44:30.929Z,160184.03
2022-12-25T03:47:59.484Z,160181.44
2022-12-25T03:51:28.591Z,160186.69
2022-12-25T03:54:53.600Z,160181.44
2022-12-25T03:58:16.365Z,160176.19
2022-12-25T04:01:39.187Z,160167.03
2022-12-25T04:05:02.390Z,160191.88
2022-12-25T04:08:25.021Z,160174.88
2022-12-25T04:11:47.848Z,160157.88
2022-12-25T04:15:10.542Z,160140.97
2022-12-25T04:18:33.300Z,160127.91
2022-12-25T04:21:56.068Z,160112.22
2022-12-25T04:25:19.167Z,160100.47
2022-12-25T04:28:41.476Z,160092.66
2022-12-25T04:32:04.338Z,160086.13
2022-12-25T04:35:28.224Z,160078.34
2022-12-25T04:38:33.119Z,160080.94
2022-12-25T04:41:37.000Z,160077.03
2022-12-25T04:44:41.219Z,160079.63
2022-12-25T04:47:45.072Z,160095.28
2022-12-25T04:50:49.185Z,160120.06
2022-12-25T04:53:53.590Z,160131.81
2022-12-25T04:56:57.675Z,160127.91
2022-12-25T05:00:01.592Z,160112.22
2022-12-25T05:03:05.515Z,160110.97
2022-12-25T05:06:09.562Z,160116.19
2022-12-25T05:09:13.768Z,160090.06
2022-12-25T05:12:17.792Z,160103.13
2022-12-25T05:15:22.170Z,160079.63
2022-12-25T05:18:26.117Z,160078.34
2022-12-25T05:21:30.334Z,160079.63
2022-12-25T05:24:34.304Z,160078.34
2022-12-25T05:27:38.617Z,160087.41
2022-12-25T05:30:42.558Z,160093.97
2022-12-25T05:33:50.087Z,160118.78
2022-12-25T05:36:53.840Z,160114.88
2022-12-25T05:39:57.600Z,160121.34
2022-12-25T05:43:01.627Z,160147.50
2022-12-25T05:46:07.675Z,160143.56
2022-12-25T05:49:11.989Z,160142.25
2022-12-25T05:52:15.926Z,160155.34
2022-12-25T05:55:19.831Z,160174.88
2022-12-25T05:58:24.025Z,160185.38
2022-12-25T06:01:29.237Z,160191.88
2022-12-25T06:04:33.091Z,160214.06
2022-12-25T06:07:37.064Z,160214.06
2022-12-25T06:10:40.761Z,160202.31
2022-12-25T06:13:44.721Z,160185.38
2022-12-25T06:16:52.824Z,160180.13
2022-12-25T06:19:57.209Z,160170.97
2022-12-25T06:23:01.469Z,160167.03
2022-12-25T06:26:07.838Z,160164.44
2022-12-25T06:29:11.950Z,160161.84
2022-12-25T06:32:16.303Z,160163.13
2022-12-25T06:35:20.637Z,160156.66
2022-12-25T06:38:24.814Z,160163.13
2022-12-25T06:41:29.560Z,160151.41
2022-12-25T06:44:33.840Z,160151.41
2022-12-25T06:47:38.617Z,160143.56
2022-12-25T06:50:44.041Z,160157.88
2022-12-25T06:53:49.325Z,160177.53
2022-12-25T06:56:53.537Z,160182.72
2022-12-25T06:59:57.460Z,160187.97
2022-12-25T07:03:01.643Z,160193.16
2022-12-25T07:06:05.783Z,160202.31
2022-12-25T07:09:10.131Z,160202.31
2022-12-25T07:12:17.966Z,160218.00
2022-12-25T07:15:22.242Z,160232.28
2022-12-25T07:18:26.880Z,160237.53
2022-12-25T07:21:31.120Z,160244.09
2022-12-25T07:24:35.164Z,160280.66
2022-12-25T07:27:39.383Z,160306.72
2022-12-25T07:30:43.115Z,160284.56
2022-12-25T07:33:47.474Z,160281.91
2022-12-25T07:36:51.640Z,160293.72
2022-12-25T07:39:55.403Z,160302.78
2022-12-25T07:42:59.284Z,160302.78
2022-12-25T07:46:03.042Z,160305.44
2022-12-25T07:49:07.187Z,160342.00
2022-12-25T07:52:11.425Z,160387.72
2022-12-25T07:55:15.724Z,160387.72
2022-12-25T07:58:23.299Z,160421.69
2022-12-25T08:01:28.393Z,160447.75
2022-12-25T08:04:32.233Z,160458.25
2022-12-25T08:07:36.202Z,160472.56
2022-12-25T08:10:45.523Z,160460.78
2022-12-25T08:13:49.439Z,160500.03
2022-12-25T08:16:53.676Z,160505.28
2022-12-25T08:19:57.986Z,160503.94
2022-12-25T08:23:02.107Z,160513.13
2022-12-25T08:26:08.216Z,160558.81
2022-12-25T08:29:12.233Z,160584.91
2022-12-25T08:32:16.321Z,160617.56
2022-12-25T08:35:20.685Z,160645.03
2022-12-25T08:38:24.821Z,160656.78
2022-12-25T08:41:29.056Z,160680.28
2022-12-25T08:44:33.091Z,160686.88
2022-12-25T08:47:37.280Z,160722.09
2022-12-25T08:50:51.746Z,160758.69
2022-12-25T08:54:00.164Z,160790.09
2022-12-25T08:57:05.382Z,160865.84
2022-12-25T09:00:10.279Z,161004.41
2022-12-25T09:03:14.691Z,161067.22
2022-12-25T09:06:18.893Z,161103.81
2022-12-25T09:09:27.808Z,161171.81
2022-12-25T09:12:31.528Z,161148.25
2022-12-25T09:15:37.436Z,161124.72
2022-12-25T09:18:41.836Z,161110.38
2022-12-25T09:21:46.026Z,161109.06
2022-12-25T09:24:50.265Z,161090.75
2022-12-25T09:27:56.278Z,161092.00
2022-12-25T09:31:00.959Z,161097.28
2022-12-25T09:34:04.982Z,161135.22
2022-12-25T09:37:09.312Z,161171.81
2022-12-25T09:40:18.682Z,161131.25
2022-12-25T09:43:23.916Z,161060.63
2022-12-25T09:46:38.276Z,161022.72
2022-12-25T09:49:50.710Z,161009.66
2022-12-25T09:53:07.404Z,161038.44
2022-12-25T09:56:18.726Z,161064.63
2022-12-25T09:59:27.157Z,161112.97
2022-12-25T10:02:40.465Z,161173.09
2022-12-25T10:05:55.360Z,161190.09
2022-12-25T10:09:08.290Z,161200.59
2022-12-25T10:12:27.911Z,161221.53
2022-12-25T10:15:59.409Z,161192.75
2022-12-25T10:19:33.041Z,161156.09
2022-12-25T10:22:47.551Z,161205.75
2022-12-25T10:25:53.374Z,161199.28
2022-12-25T10:29:13.703Z,161226.75
2022-12-25T10:32:17.831Z,161256.81
2022-12-25T10:35:24.367Z,161248.94
2022-12-25T10:38:28.325Z,161267.31
2022-12-25T10:41:51.116Z,161269.88
2022-12-25T10:44:56.686Z,161296.06
2022-12-25T10:48:07.488Z,161320.91
2022-12-25T10:51:11.839Z,161339.19
2022-12-25T10:54:23.379Z,161344.47
2022-12-25T10:57:29.202Z,161323.53
2022-12-25T11:00:33.691Z,161322.19
2022-12-25T11:03:40.171Z,161326.13
2022-12-25T11:06:44.362Z,161331.38
2022-12-25T11:10:15.195Z,161349.72
2022-12-25T11:13:26.924Z,161360.13
2022-12-25T11:16:40.775Z,161357.53
2022-12-25T11:19:56.160Z,161352.31
2022-12-25T11:23:00.284Z,161362.78
2022-12-25T11:26:07.345Z,161351.00
2022-12-25T11:29:26.456Z,161351.00
2022-12-25T11:32:46.288Z,161351.00
2022-12-25T11:35:52.945Z,161370.66
2022-12-25T11:39:05.106Z,161360.13
2022-12-25T11:42:28.298Z,161354.97
2022-12-25T11:45:38.043Z,161339.19
2022-12-25T11:48:45.221Z,161331.38
2022-12-25T11:51:51.905Z,161326.13
2022-12-25T11:55:07.136Z,161296.06
2022-12-25T11:58:23.469Z,161314.34
2022-12-25T12:01:36.959Z,161324.84
2022-12-25T12:04:44.129Z,161335.28
2022-12-25T12:08:03.053Z,161370.66
2022-12-25T12:11:22.320Z,161433.47
2022-12-25T12:14:53.817Z,161449.16
2022-12-25T12:18:20.673Z,161480.50
2022-12-25T12:21:28.062Z,161467.44
2022-12-25T12:24:40.550Z,161470.09
2022-12-25T12:27:44.951Z,161470.09
2022-12-25T12:31:02.081Z,161446.50
2022-12-25T12:34:07.087Z,161430.81
2022-12-25T12:37:36.117Z,161445.22
2022-12-25T12:40:54.079Z,161464.81
2022-12-25T12:44:00.596Z,161480.50
2022-12-25T12:47:04.619Z,161487.09
2022-12-25T12:50:34.727Z,161493.63
2022-12-25T12:53:40.967Z,161506.72
2022-12-25T12:57:25.274Z,161511.97
2022-12-25T13:00:41.168Z,161505.38
2022-12-25T13:03:53.131Z,161472.69
2022-12-25T13:07:32.307Z,161447.81
2022-12-25T13:10:40.651Z,161453.06
2022-12-25T13:13:45.904Z,161463.50
2022-12-25T13:16:52.862Z,161481.84
2022-12-25T13:19:59.549Z,161463.50
2022-12-25T13:23:13.925Z,161458.28
2022-12-25T13:26:18.387Z,161446.50
2022-12-25T13:29:34.493Z,161479.22
2022-12-25T13:32:38.777Z,161471.38
2022-12-25T13:35:44.013Z,161467.44
2022-12-25T13:38:51.755Z,161445.22
2022-12-25T13:42:11.003Z,161462.22
2022-12-25T13:45:26.201Z,161443.88
2022-12-25T13:48:31.430Z,161424.28
2022-12-25T13:51:35.071Z,161411.19
2022-12-25T13:54:39.460Z,161417.69
2022-12-25T13:57:55.558Z,161413.81
2022-12-25T14:01:01.273Z,161407.28
2022-12-25T14:04:06.707Z,161399.41
2022-12-25T14:07:12.086Z,161378.47
2022-12-25T14:10:16.077Z,161378.47
2022-12-25T14:13:24.520Z,161388.94
2022-12-25T14:16:29.345Z,161394.19
2022-12-25T14:19:34.457Z,161373.25
2022-12-25T14:22:38.842Z,161368.00
2022-12-25T14:25:45.349Z,161366.72
2022-12-25T14:28:53.509Z,161341.84
2022-12-25T14:32:00.444Z,161328.78
2022-12-25T14:35:04.779Z,161357.53
2022-12-25T14:38:17.332Z,161374.59
2022-12-25T14:41:33.428Z,161387.66
2022-12-25T14:44:40.395Z,161368.00
2022-12-25T14:47:54.921Z,161352.31
2022-12-25T14:51:08.844Z,161347.06
2022-12-25T14:54:20.175Z,161357.53
2022-12-25T14:57:34.292Z,161331.38
2022-12-25T15:00:38.426Z,161319.59
2022-12-25T15:03:43.515Z,161313.06
2022-12-25T15:06:55.564Z,161315.66
2022-12-25T15:10:36.776Z,161306.53
2022-12-25T15:13:23.963Z,161292.13
2022-12-25T15:16:30.901Z,161262.06
2022-12-25T15:19:38.710Z,161258.13
2022-12-25T15:23:10.069Z,161263.38
2022-12-25T15:26:13.132Z,161289.53
2022-12-25T15:29:23.684Z,161309.19
2022-12-25T15:32:40.975Z,161303.94
2022-12-25T15:35:45.561Z,161286.91
2022-12-25T15:38:50.562Z,161326.13
2022-12-25T15:42:12.892Z,161285.59
2022-12-25T15:45:26.187Z,161271.19
2022-12-25T15:48:30.195Z,161297.34
2022-12-25T15:51:34.674Z,161293.41
2022-12-25T15:54:38.446Z,161297.34
2022-12-25T15:57:44.592Z,161279.06
2022-12-25T16:00:48.300Z,161275.13
2022-12-25T16:03:52.296Z,161277.72
2022-12-25T16:06:57.214Z,161293.41
2022-12-25T16:10:01.088Z,161280.38
2022-12-25T16:13:04.730Z,161267.31
2022-12-25T16:16:08.583Z,161300.00
2022-12-25T16:19:12.313Z,161293.41
2022-12-25T16:22:23.061Z,161307.84
2022-12-25T16:25:27.528Z,161296.06
2022-12-25T16:28:31.589Z,161280.38
2022-12-25T16:31:36.770Z,161298.66
2022-12-25T16:34:40.866Z,161292.13
2022-12-25T16:37:45.160Z,161303.94
2022-12-25T16:40:55.863Z,161307.84
2022-12-25T16:44:03.323Z,161294.72
2022-12-25T16:47:07.357Z,161318.25
2022-12-25T16:50:11.407Z,161300.00
2022-12-25T16:53:15.474Z,161286.91
2022-12-25T16:56:30.705Z,161298.66
2022-12-25T16:59:35.797Z,161279.06
2022-12-25T17:02:40.864Z,161283.00
2022-12-25T17:05:45.088Z,161297.34
2022-12-25T17:08:50.710Z,161289.53
2022-12-25T17:11:54.562Z,161294.72
2022-12-25T17:14:58.363Z,161281.66
2022-12-25T17:18:02.329Z,161283.00
2022-12-25T17:21:06.159Z,161271.19
2022-12-25T17:24:10.660Z,161276.41
2022-12-25T17:27:14.583Z,161272.47
2022-12-25T17:30:18.795Z,161267.31
2022-12-25T17:33:22.975Z,161259.47
2022-12-25T17:36:27.254Z,161255.47
2022-12-25T17:39:31.153Z,161276.41
2022-12-25T17:42:35.462Z,161266.00
2022-12-25T17:45:39.788Z,161268.59
2022-12-25T17:48:44.642Z,161276.41
2022-12-25T17:51:48.630Z,161273.81
2022-12-25T17:54:52.929Z,161268.59
2022-12-25T17:57:57.035Z,161276.41
2022-12-25T18:01:09.130Z,161296.06
2022-12-25T18:04:13.222Z,161286.91
2022-12-25T18:07:17.581Z,161276.41
2022-12-25T18:10:21.695Z,161277.72
2022-12-25T18:13:25.602Z,161259.47
2022-12-25T18:16:32.305Z,161250.28
2022-12-25T18:19:37.175Z,161256.81
2022-12-25T18:22:41.429Z,161242.47
2022-12-25T18:25:45.693Z,161229.34
2022-12-25T18:28:50.630Z,161234.59
2022-12-25T18:31:55.416Z,161237.22
2022-12-25T18:34:59.502Z,161250.28
2022-12-25T18:38:05.474Z,161264.66
2022-12-25T18:41:10.264Z,161266.00
2022-12-25T18:44:14.329Z,161273.81
2022-12-25T18:47:18.257Z,161290.84
2022-12-25T18:50:22.477Z,161283.00
2022-12-25T18:53:28.781Z,161290.84
2022-12-25T18:56:33.031Z,161294.72
2022-12-25T18:59:37.447Z,161300.00
2022-12-25T19:02:41.874Z,161305.25
2022-12-25T19:05:45.537Z,161314.34
2022-12-25T19:08:49.570Z,161331.38
2022-12-25T19:11:55.854Z,161344.47
2022-12-25T19:14:59.887Z,161341.84
2022-12-25T19:18:04.379Z,161344.47
2022-12-25T19:21:09.403Z,161347.06
2022-12-25T19:24:13.587Z,161373.25
2022-12-25T19:27:17.555Z,161381.06
2022-12-25T19:30:21.351Z,161400.69
2022-12-25T19:33:25.234Z,161404.66
2022-12-25T19:36:29.123Z,161392.88
2022-12-25T19:39:33.263Z,161412.53
2022-12-25T19:42:37.341Z,161415.13
2022-12-25T19:45:41.389Z,161398.06
2022-12-25T19:48:45.605Z,161404.66
2022-12-25T19:51:49.436Z,161415.13
2022-12-25T19:54:53.603Z,161404.66
2022-12-25T19:57:59.066Z,161412.53
2022-12-25T20:01:06.612Z,161411.19
2022-12-25T20:04:11.262Z,161422.94
2022-12-25T20:07:15.288Z,161417.69
2022-12-25T20:10:19.075Z,161422.94
2022-12-25T20:13:23.352Z,161433.47
2022-12-25T20:16:27.550Z,161425.53
2022-12-25T20:19:31.963Z,161424.28
2022-12-25T20:22:36.023Z,161424.28
2022-12-25T20:25:41.721Z,161416.47
2022-12-25T20:28:46.037Z,161420.34
2022-12-25T20:31:51.232Z,161434.75
2022-12-25T20:34:55.170Z,161437.34
2022-12-25T20:37:59.292Z,161441.28
2022-12-25T20:44:30.062Z,161459.56
2022-12-25T20:47:34.688Z,161463.50
2022-12-25T20:50:38.407Z,161470.09
2022-12-25T20:53:42.958Z,161455.69
2022-12-25T20:56:48.229Z,161449.16
2022-12-25T20:59:52.121Z,161449.16
2022-12-25T21:02:56.012Z,161450.41
2022-12-25T21:06:01.025Z,161472.69
2022-12-25T21:09:05.554Z,161460.88
2022-12-25T21:12:09.646Z,161466.16
2022-12-25T21:15:15.804Z,161458.28
2022-12-25T21:18:21.580Z,161472.69
2022-12-25T21:21:25.792Z,161474.00
2022-12-25T21:24:30.067Z,161470.09
2022-12-25T21:27:33.939Z,161471.38
2022-12-25T21:30:38.241Z,161497.56
2022-12-25T21:33:51.280Z,161480.50
2022-12-25T21:36:55.054Z,161479.22
2022-12-25T21:39:59.251Z,161483.16
2022-12-25T21:43:04.583Z,161483.16
2022-12-25T21:46:13.733Z,161488.38
2022-12-25T21:49:37.428Z,161511.97
2022-12-25T21:52:41.299Z,161551.19
2022-12-25T21:55:59.150Z,161578.69
2022-12-25T21:59:04.801Z,161551.19
2022-12-25T22:02:11.529Z,161556.47
2022-12-25T22:05:36.107Z,161539.41
2022-12-25T22:08:40.338Z,161542.00
2022-12-25T22:12:03.337Z,161549.94
2022-12-25T22:15:09.621Z,161561.66
2022-12-25T22:18:32.425Z,161551.19
2022-12-25T22:21:36.507Z,161551.19
2022-12-25T22:24:40.532Z,161556.47
2022-12-25T22:27:45.608Z,161566.88
2022-12-25T22:30:49.786Z,161553.84
2022-12-25T22:33:54.966Z,161572.16
2022-12-25T22:36:59.258Z,161548.59
2022-12-25T22:40:04.013Z,161572.16
2022-12-25T22:43:08.578Z,161583.91
2022-12-25T22:46:12.581Z,161590.47
2022-12-25T22:49:17.380Z,161572.16
2022-12-25T22:52:21.949Z,161587.84
2022-12-25T22:55:25.835Z,161593.09
2022-12-25T22:58:29.837Z,161602.25
2022-12-25T23:01:34.164Z,161598.31
2022-12-25T23:04:38.199Z,161591.75
2022-12-25T23:07:42.230Z,161586.56
2022-12-25T23:10:46.243Z,161552.53
2022-12-25T23:14:08.912Z,161540.72
2022-12-25T23:17:31.743Z,161545.94
2022-12-25T23:20:55.551Z,161543.34
2022-12-25T23:24:18.809Z,161513.25
2022-12-25T23:27:23.015Z,161519.78
2022-12-25T23:30:27.568Z,161521.06
2022-12-25T23:33:32.010Z,161514.56
2022-12-25T23:36:36.321Z,161483.16
2022-12-25T23:39:41.312Z,161453.06
2022-12-25T23:42:45.007Z,161458.28
2022-12-25T23:45:48.945Z,161454.41
2022-12-25T23:48:52.903Z,161438.63
2022-12-25T23:51:57.254Z,161429.53
2022-12-25T23:55:01.112Z,161421.63
2022-12-25T23:58:05.131Z,161439.94
